sensor_id;sensor_type;location;lat;lon;timestamp;P1;durP1;ratioP1;P2;durP2;ratioP2
3293;SDS011;1659;51.470;6.770;2022-09-29T00:00:19;34.13;;;19.03;;
3293;SDS011;1659;51.470;6.770;2022-09-29T00:02:46;35.40;;;19.70;;
3293;SDS011;1659;51.470;6.770;2022-09-29T00:05:14;42.83;;;19.97;;
3293;SDS011;1659;51.470;6.770;2022-09-29T00:07:41;36.63;;;20.33;;
3293;SDS011;1659;51.470;6.770;2022-09-29T00:10:07;39.33;;;20.30;;
3293;SDS011;1659;51.470;6.770;2022-09-29T00:12:34;32.67;;;18.03;;
3293;SDS011;1659;51.470;6.770;2022-09-29T00:15:01;44.43;;;20.27;;
3293;SDS011;1659;51.470;6.770;2022-09-29T00:17:27;37.30;;;19.67;;
3293;SDS011;1659;51.470;6.770;2022-09-29T00:19:54;33.47;;;18.00;;
3293;SDS011;1659;51.470;6.770;2022-09-29T00:22:22;36.20;;;19.30;;
3293;SDS011;1659;51.470;6.770;2022-09-29T00:24:48;34.63;;;19.87;;
3293;SDS011;1659;51.470;6.770;2022-09-29T00:27:15;33.10;;;19.97;;
3293;SDS011;1659;51.470;6.770;2022-09-29T00:29:42;31.97;;;19.07;;
3293;SDS011;1659;51.470;6.770;2022-09-29T00:32:09;34.27;;;19.00;;
3293;SDS011;1659;51.470;6.770;2022-09-29T00:34:36;37.97;;;20.40;;
3293;SDS011;1659;51.470;6.770;2022-09-29T00:37:03;32.80;;;19.00;;
3293;SDS011;1659;51.470;6.770;2022-09-29T00:39:31;35.93;;;19.20;;
3293;SDS011;1659;51.470;6.770;2022-09-29T00:41:58;36.00;;;20.07;;
3293;SDS011;1659;51.470;6.770;2022-09-29T00:47:22;39.93;;;20.20;;
3293;SDS011;1659;51.470;6.770;2022-09-29T00:49:50;36.47;;;19.60;;
3293;SDS011;1659;51.470;6.770;2022-09-29T00:52:22;31.30;;;19.50;;
3293;SDS011;1659;51.470;6.770;2022-09-29T00:54:52;36.00;;;20.90;;
3293;SDS011;1659;51.470;6.770;2022-09-29T00:57:24;37.43;;;19.53;;
3293;SDS011;1659;51.470;6.770;2022-09-29T00:59:54;34.33;;;19.80;;
3293;SDS011;1659;51.470;6.770;2022-09-29T01:02:27;36.77;;;21.57;;
3293;SDS011;1659;51.470;6.770;2022-09-29T01:04:56;37.33;;;20.90;;
3293;SDS011;1659;51.470;6.770;2022-09-29T01:07:24;37.30;;;19.03;;
3293;SDS011;1659;51.470;6.770;2022-09-29T01:09:54;40.00;;;21.07;;
3293;SDS011;1659;51.470;6.770;2022-09-29T01:12:22;38.70;;;20.80;;
3293;SDS011;1659;51.470;6.770;2022-09-29T01:14:49;38.50;;;21.30;;
3293;SDS011;1659;51.470;6.770;2022-09-29T01:17:17;38.23;;;20.77;;
3293;SDS011;1659;51.470;6.770;2022-09-29T01:19:46;39.67;;;21.10;;
3293;SDS011;1659;51.470;6.770;2022-09-29T01:22:30;35.77;;;19.43;;
3293;SDS011;1659;51.470;6.770;2022-09-29T01:25:15;46.83;;;21.87;;
3293;SDS011;1659;51.470;6.770;2022-09-29T01:28:01;35.53;;;19.03;;
3293;SDS011;1659;51.470;6.770;2022-09-29T01:30:48;36.00;;;21.07;;
3293;SDS011;1659;51.470;6.770;2022-09-29T01:33:28;40.80;;;20.77;;
3293;SDS011;1659;51.470;6.770;2022-09-29T01:36:02;39.97;;;20.53;;
3293;SDS011;1659;51.470;6.770;2022-09-29T01:38:46;40.50;;;20.60;;
3293;SDS011;1659;51.470;6.770;2022-09-29T01:41:20;39.77;;;20.83;;
3293;SDS011;1659;51.470;6.770;2022-09-29T01:43:56;41.30;;;20.43;;
3293;SDS011;1659;51.470;6.770;2022-09-29T01:46:31;41.30;;;20.47;;
3293;SDS011;1659;51.470;6.770;2022-09-29T01:49:02;37.90;;;20.90;;
3293;SDS011;1659;51.470;6.770;2022-09-29T01:51:30;32.07;;;18.27;;
3293;SDS011;1659;51.470;6.770;2022-09-29T01:54:05;42.53;;;22.20;;
3293;SDS011;1659;51.470;6.770;2022-09-29T01:56:38;37.87;;;19.40;;
3293;SDS011;1659;51.470;6.770;2022-09-29T01:59:10;32.80;;;19.50;;
3293;SDS011;1659;51.470;6.770;2022-09-29T02:01:43;48.90;;;21.80;;
3293;SDS011;1659;51.470;6.770;2022-09-29T02:04:15;41.60;;;21.70;;
3293;SDS011;1659;51.470;6.770;2022-09-29T02:06:47;36.40;;;21.00;;
3293;SDS011;1659;51.470;6.770;2022-09-29T02:09:20;35.53;;;21.33;;
3293;SDS011;1659;51.470;6.770;2022-09-29T02:11:49;36.13;;;20.33;;
3293;SDS011;1659;51.470;6.770;2022-09-29T02:14:18;35.40;;;20.40;;
3293;SDS011;1659;51.470;6.770;2022-09-29T02:16:51;41.43;;;21.30;;
3293;SDS011;1659;51.470;6.770;2022-09-29T02:19:24;35.60;;;19.90;;
3293;SDS011;1659;51.470;6.770;2022-09-29T02:21:54;36.33;;;19.53;;
3293;SDS011;1659;51.470;6.770;2022-09-29T02:24:21;33.40;;;19.30;;
3293;SDS011;1659;51.470;6.770;2022-09-29T02:26:49;42.30;;;21.27;;
3293;SDS011;1659;51.470;6.770;2022-09-29T02:29:16;40.43;;;21.40;;
3293;SDS011;1659;51.470;6.770;2022-09-29T02:31:44;39.20;;;21.30;;
3293;SDS011;1659;51.470;6.770;2022-09-29T02:34:13;41.00;;;21.17;;
3293;SDS011;1659;51.470;6.770;2022-09-29T02:36:45;38.83;;;21.37;;
3293;SDS011;1659;51.470;6.770;2022-09-29T02:39:23;41.40;;;22.20;;
3293;SDS011;1659;51.470;6.770;2022-09-29T02:42:02;38.13;;;20.87;;
3293;SDS011;1659;51.470;6.770;2022-09-29T02:44:42;39.97;;;22.00;;
3293;SDS011;1659;51.470;6.770;2022-09-29T02:47:22;39.00;;;22.40;;
3293;SDS011;1659;51.470;6.770;2022-09-29T02:50:06;41.20;;;21.83;;
3293;SDS011;1659;51.470;6.770;2022-09-29T02:52:53;37.97;;;21.23;;
3293;SDS011;1659;51.470;6.770;2022-09-29T02:55:29;44.63;;;21.87;;
3293;SDS011;1659;51.470;6.770;2022-09-29T02:58:04;36.50;;;21.00;;
3293;SDS011;1659;51.470;6.770;2022-09-29T03:00:37;43.73;;;23.23;;
3293;SDS011;1659;51.470;6.770;2022-09-29T03:03:05;39.27;;;21.17;;
3293;SDS011;1659;51.470;6.770;2022-09-29T03:05:33;42.87;;;23.13;;
3293;SDS011;1659;51.470;6.770;2022-09-29T03:07:59;39.57;;;21.80;;
3293;SDS011;1659;51.470;6.770;2022-09-29T03:10:26;43.50;;;21.60;;
3293;SDS011;1659;51.470;6.770;2022-09-29T03:12:53;44.00;;;22.23;;
3293;SDS011;1659;51.470;6.770;2022-09-29T03:15:19;39.37;;;21.87;;
3293;SDS011;1659;51.470;6.770;2022-09-29T03:17:46;42.40;;;23.00;;
3293;SDS011;1659;51.470;6.770;2022-09-29T03:20:13;45.80;;;22.67;;
3293;SDS011;1659;51.470;6.770;2022-09-29T03:22:40;40.10;;;21.47;;
3293;SDS011;1659;51.470;6.770;2022-09-29T03:25:07;44.60;;;22.90;;
3293;SDS011;1659;51.470;6.770;2022-09-29T03:27:34;40.03;;;22.80;;
3293;SDS011;1659;51.470;6.770;2022-09-29T03:30:02;45.70;;;23.70;;
3293;SDS011;1659;51.470;6.770;2022-09-29T03:32:29;46.03;;;20.83;;
3293;SDS011;1659;51.470;6.770;2022-09-29T03:34:55;39.43;;;21.10;;
3293;SDS011;1659;51.470;6.770;2022-09-29T03:37:22;39.37;;;21.57;;
3293;SDS011;1659;51.470;6.770;2022-09-29T03:39:50;40.97;;;20.60;;
3293;SDS011;1659;51.470;6.770;2022-09-29T03:42:16;39.53;;;21.87;;
3293;SDS011;1659;51.470;6.770;2022-09-29T03:44:43;39.60;;;21.57;;
3293;SDS011;1659;51.470;6.770;2022-09-29T03:47:09;39.97;;;21.57;;
3293;SDS011;1659;51.470;6.770;2022-09-29T03:49:36;41.33;;;23.00;;
3293;SDS011;1659;51.470;6.770;2022-09-29T03:52:02;46.10;;;24.07;;
3293;SDS011;1659;51.470;6.770;2022-09-29T03:54:29;45.80;;;23.87;;
3293;SDS011;1659;51.470;6.770;2022-09-29T03:56:57;49.67;;;25.47;;
3293;SDS011;1659;51.470;6.770;2022-09-29T03:59:23;42.90;;;23.20;;
3293;SDS011;1659;51.470;6.770;2022-09-29T04:01:50;44.30;;;24.90;;
3293;SDS011;1659;51.470;6.770;2022-09-29T04:04:16;50.07;;;23.30;;
3293;SDS011;1659;51.470;6.770;2022-09-29T04:06:43;39.70;;;23.37;;
3293;SDS011;1659;51.470;6.770;2022-09-29T04:09:09;51.13;;;23.87;;
3293;SDS011;1659;51.470;6.770;2022-09-29T04:11:36;47.60;;;23.37;;
3293;SDS011;1659;51.470;6.770;2022-09-29T04:14:04;42.60;;;22.57;;
3293;SDS011;1659;51.470;6.770;2022-09-29T04:16:31;48.07;;;23.57;;
3293;SDS011;1659;51.470;6.770;2022-09-29T04:18:58;43.73;;;22.27;;
3293;SDS011;1659;51.470;6.770;2022-09-29T04:21:24;44.67;;;23.70;;
3293;SDS011;1659;51.470;6.770;2022-09-29T04:23:51;47.00;;;23.33;;
3293;SDS011;1659;51.470;6.770;2022-09-29T04:26:17;48.07;;;24.07;;
3293;SDS011;1659;51.470;6.770;2022-09-29T04:28:44;43.40;;;23.40;;
3293;SDS011;1659;51.470;6.770;2022-09-29T04:31:13;54.47;;;22.40;;
3293;SDS011;1659;51.470;6.770;2022-09-29T04:33:39;45.90;;;23.50;;
3293;SDS011;1659;51.470;6.770;2022-09-29T04:36:06;42.90;;;23.37;;
3293;SDS011;1659;51.470;6.770;2022-09-29T04:38:33;40.90;;;22.37;;
3293;SDS011;1659;51.470;6.770;2022-09-29T04:40:59;44.87;;;23.73;;
3293;SDS011;1659;51.470;6.770;2022-09-29T04:43:26;44.30;;;24.07;;
3293;SDS011;1659;51.470;6.770;2022-09-29T04:45:59;56.70;;;23.77;;
3293;SDS011;1659;51.470;6.770;2022-09-29T04:48:28;46.10;;;23.53;;
3293;SDS011;1659;51.470;6.770;2022-09-29T04:50:54;56.83;;;25.27;;
3293;SDS011;1659;51.470;6.770;2022-09-29T04:53:21;47.40;;;22.70;;
3293;SDS011;1659;51.470;6.770;2022-09-29T04:55:47;44.17;;;24.00;;
3293;SDS011;1659;51.470;6.770;2022-09-29T04:58:14;53.30;;;26.50;;
3293;SDS011;1659;51.470;6.770;2022-09-29T05:00:40;52.40;;;28.00;;
3293;SDS011;1659;51.470;6.770;2022-09-29T05:03:07;52.83;;;27.83;;
3293;SDS011;1659;51.470;6.770;2022-09-29T05:05:34;47.20;;;24.90;;
3293;SDS011;1659;51.470;6.770;2022-09-29T05:08:01;54.60;;;27.47;;
3293;SDS011;1659;51.470;6.770;2022-09-29T05:10:28;51.00;;;27.70;;
3293;SDS011;1659;51.470;6.770;2022-09-29T05:12:55;45.07;;;25.43;;
3293;SDS011;1659;51.470;6.770;2022-09-29T05:15:21;44.80;;;25.37;;
3293;SDS011;1659;51.470;6.770;2022-09-29T05:17:48;47.23;;;25.23;;
3293;SDS011;1659;51.470;6.770;2022-09-29T05:20:14;50.50;;;25.80;;
3293;SDS011;1659;51.470;6.770;2022-09-29T05:22:42;52.30;;;25.13;;
3293;SDS011;1659;51.470;6.770;2022-09-29T05:25:09;52.97;;;26.47;;
3293;SDS011;1659;51.470;6.770;2022-09-29T05:27:36;51.97;;;27.27;;
3293;SDS011;1659;51.470;6.770;2022-09-29T05:30:03;52.50;;;27.10;;
3293;SDS011;1659;51.470;6.770;2022-09-29T05:32:30;53.67;;;27.67;;
3293;SDS011;1659;51.470;6.770;2022-09-29T05:34:57;52.47;;;26.77;;
3293;SDS011;1659;51.470;6.770;2022-09-29T05:37:23;48.63;;;26.77;;
3293;SDS011;1659;51.470;6.770;2022-09-29T05:39:51;56.43;;;26.67;;
3293;SDS011;1659;51.470;6.770;2022-09-29T05:42:18;45.57;;;25.40;;
3293;SDS011;1659;51.470;6.770;2022-09-29T05:44:45;49.93;;;26.37;;
3293;SDS011;1659;51.470;6.770;2022-09-29T05:47:11;56.70;;;25.93;;
3293;SDS011;1659;51.470;6.770;2022-09-29T05:49:38;52.17;;;26.20;;
3293;SDS011;1659;51.470;6.770;2022-09-29T05:52:04;53.47;;;27.77;;
3293;SDS011;1659;51.470;6.770;2022-09-29T05:54:31;47.53;;;26.13;;
3293;SDS011;1659;51.470;6.770;2022-09-29T05:56:59;50.80;;;28.30;;
3293;SDS011;1659;51.470;6.770;2022-09-29T05:59:25;54.60;;;30.90;;
3293;SDS011;1659;51.470;6.770;2022-09-29T06:01:52;47.47;;;27.70;;
3293;SDS011;1659;51.470;6.770;2022-09-29T06:04:18;48.13;;;26.73;;
3293;SDS011;1659;51.470;6.770;2022-09-29T06:06:45;51.67;;;26.33;;
3293;SDS011;1659;51.470;6.770;2022-09-29T06:09:12;58.93;;;28.40;;
3293;SDS011;1659;51.470;6.770;2022-09-29T06:11:39;45.27;;;25.03;;
3293;SDS011;1659;51.470;6.770;2022-09-29T06:14:07;47.50;;;26.10;;
3293;SDS011;1659;51.470;6.770;2022-09-29T06:16:34;53.90;;;25.77;;
3293;SDS011;1659;51.470;6.770;2022-09-29T06:19:00;49.87;;;25.70;;
3293;SDS011;1659;51.470;6.770;2022-09-29T06:21:28;54.00;;;27.10;;
3293;SDS011;1659;51.470;6.770;2022-09-29T06:23:56;49.13;;;27.23;;
3293;SDS011;1659;51.470;6.770;2022-09-29T06:26:24;46.70;;;24.53;;
3293;SDS011;1659;51.470;6.770;2022-09-29T06:28:52;48.80;;;25.67;;
3293;SDS011;1659;51.470;6.770;2022-09-29T06:31:20;47.10;;;26.00;;
3293;SDS011;1659;51.470;6.770;2022-09-29T06:33:48;51.93;;;27.57;;
3293;SDS011;1659;51.470;6.770;2022-09-29T06:36:15;58.40;;;29.30;;
3293;SDS011;1659;51.470;6.770;2022-09-29T06:39:02;47.43;;;27.10;;
3293;SDS011;1659;51.470;6.770;2022-09-29T06:41:28;42.40;;;24.30;;
3293;SDS011;1659;51.470;6.770;2022-09-29T06:43:55;40.33;;;23.50;;
3293;SDS011;1659;51.470;6.770;2022-09-29T06:46:23;34.93;;;20.87;;
3293;SDS011;1659;51.470;6.770;2022-09-29T06:48:51;37.03;;;22.30;;
3293;SDS011;1659;51.470;6.770;2022-09-29T06:51:17;37.20;;;20.90;;
3293;SDS011;1659;51.470;6.770;2022-09-29T06:53:46;38.80;;;20.40;;
3293;SDS011;1659;51.470;6.770;2022-09-29T06:56:12;31.90;;;18.90;;
3293;SDS011;1659;51.470;6.770;2022-09-29T06:58:39;33.07;;;20.43;;
3293;SDS011;1659;51.470;6.770;2022-09-29T07:01:06;31.07;;;18.53;;
3293;SDS011;1659;51.470;6.770;2022-09-29T07:03:34;38.97;;;19.13;;
3293;SDS011;1659;51.470;6.770;2022-09-29T07:06:01;40.53;;;18.30;;
3293;SDS011;1659;51.470;6.770;2022-09-29T07:08:28;35.97;;;19.73;;
3293;SDS011;1659;51.470;6.770;2022-09-29T07:10:55;32.73;;;18.10;;
3293;SDS011;1659;51.470;6.770;2022-09-29T07:13:22;26.30;;;17.00;;
3293;SDS011;1659;51.470;6.770;2022-09-29T07:15:49;25.50;;;17.30;;
3293;SDS011;1659;51.470;6.770;2022-09-29T07:18:15;22.90;;;16.50;;
3293;SDS011;1659;51.470;6.770;2022-09-29T07:20:43;25.30;;;15.60;;
3293;SDS011;1659;51.470;6.770;2022-09-29T07:23:10;19.83;;;14.70;;
3293;SDS011;1659;51.470;6.770;2022-09-29T07:25:37;26.87;;;16.27;;
3293;SDS011;1659;51.470;6.770;2022-09-29T07:28:04;20.43;;;14.40;;
3293;SDS011;1659;51.470;6.770;2022-09-29T07:30:30;20.00;;;14.00;;
3293;SDS011;1659;51.470;6.770;2022-09-29T07:32:57;22.87;;;14.17;;
3293;SDS011;1659;51.470;6.770;2022-09-29T07:35:23;26.30;;;14.43;;
3293;SDS011;1659;51.470;6.770;2022-09-29T07:37:52;17.77;;;12.53;;
3293;SDS011;1659;51.470;6.770;2022-09-29T07:40:19;17.43;;;12.83;;
3293;SDS011;1659;51.470;6.770;2022-09-29T07:42:46;15.30;;;12.30;;
3293;SDS011;1659;51.470;6.770;2022-09-29T07:45:14;18.40;;;12.67;;
3293;SDS011;1659;51.470;6.770;2022-09-29T07:47:41;15.10;;;11.77;;
3293;SDS011;1659;51.470;6.770;2022-09-29T07:50:07;17.93;;;11.83;;
3293;SDS011;1659;51.470;6.770;2022-09-29T07:52:34;13.50;;;10.67;;
3293;SDS011;1659;51.470;6.770;2022-09-29T07:55:02;13.80;;;11.60;;
3293;SDS011;1659;51.470;6.770;2022-09-29T07:57:29;13.10;;;10.50;;
3293;SDS011;1659;51.470;6.770;2022-09-29T07:59:56;14.93;;;11.50;;
3293;SDS011;1659;51.470;6.770;2022-09-29T08:02:23;11.73;;;10.30;;
3293;SDS011;1659;51.470;6.770;2022-09-29T08:04:50;14.50;;;10.50;;
3293;SDS011;1659;51.470;6.770;2022-09-29T08:07:16;17.40;;;10.83;;
3293;SDS011;1659;51.470;6.770;2022-09-29T08:09:43;23.40;;;9.73;;
3293;SDS011;1659;51.470;6.770;2022-09-29T08:12:12;21.03;;;10.37;;
3293;SDS011;1659;51.470;6.770;2022-09-29T08:14:38;13.60;;;9.60;;
3293;SDS011;1659;51.470;6.770;2022-09-29T08:17:06;15.50;;;9.40;;
3293;SDS011;1659;51.470;6.770;2022-09-29T08:19:33;17.20;;;10.83;;
3293;SDS011;1659;51.470;6.770;2022-09-29T08:21:59;12.20;;;9.93;;
3293;SDS011;1659;51.470;6.770;2022-09-29T08:24:26;13.30;;;10.03;;
3293;SDS011;1659;51.470;6.770;2022-09-29T08:26:54;13.40;;;10.37;;
3293;SDS011;1659;51.470;6.770;2022-09-29T08:29:23;17.33;;;11.30;;
3293;SDS011;1659;51.470;6.770;2022-09-29T08:31:49;14.10;;;10.03;;
3293;SDS011;1659;51.470;6.770;2022-09-29T08:34:16;11.63;;;10.20;;
3293;SDS011;1659;51.470;6.770;2022-09-29T08:36:43;15.20;;;10.80;;
3293;SDS011;1659;51.470;6.770;2022-09-29T08:39:10;15.33;;;10.53;;
3293;SDS011;1659;51.470;6.770;2022-09-29T08:41:47;13.90;;;10.60;;
3293;SDS011;1659;51.470;6.770;2022-09-29T08:44:18;11.97;;;10.57;;
3293;SDS011;1659;51.470;6.770;2022-09-29T08:46:52;12.83;;;10.53;;
3293;SDS011;1659;51.470;6.770;2022-09-29T08:49:23;17.83;;;12.00;;
3293;SDS011;1659;51.470;6.770;2022-09-29T08:51:54;12.63;;;10.90;;
3293;SDS011;1659;51.470;6.770;2022-09-29T08:54:26;17.57;;;11.30;;
3293;SDS011;1659;51.470;6.770;2022-09-29T08:56:55;13.27;;;10.60;;
3293;SDS011;1659;51.470;6.770;2022-09-29T08:59:24;14.20;;;12.00;;
3293;SDS011;1659;51.470;6.770;2022-09-29T09:01:56;16.57;;;10.97;;
3293;SDS011;1659;51.470;6.770;2022-09-29T09:04:53;16.87;;;12.70;;
3293;SDS011;1659;51.470;6.770;2022-09-29T09:07:33;20.03;;;11.60;;
3293;SDS011;1659;51.470;6.770;2022-09-29T09:10:12;17.20;;;12.50;;
3293;SDS011;1659;51.470;6.770;2022-09-29T09:12:51;12.53;;;10.87;;
3293;SDS011;1659;51.470;6.770;2022-09-29T09:15:38;16.40;;;11.30;;
3293;SDS011;1659;51.470;6.770;2022-09-29T09:18:28;17.60;;;11.83;;
3293;SDS011;1659;51.470;6.770;2022-09-29T09:21:06;14.40;;;10.63;;
3293;SDS011;1659;51.470;6.770;2022-09-29T09:23:37;16.03;;;11.70;;
3293;SDS011;1659;51.470;6.770;2022-09-29T09:26:14;13.20;;;11.17;;
3293;SDS011;1659;51.470;6.770;2022-09-29T09:28:42;18.67;;;12.43;;
3293;SDS011;1659;51.470;6.770;2022-09-29T09:31:16;14.67;;;12.43;;
3293;SDS011;1659;51.470;6.770;2022-09-29T09:33:48;18.03;;;13.43;;
3293;SDS011;1659;51.470;6.770;2022-09-29T09:36:19;17.27;;;12.67;;
3293;SDS011;1659;51.470;6.770;2022-09-29T09:38:55;17.83;;;12.13;;
3293;SDS011;1659;51.470;6.770;2022-09-29T09:41:26;21.93;;;13.70;;
3293;SDS011;1659;51.470;6.770;2022-09-29T09:43:55;16.60;;;13.60;;
3293;SDS011;1659;51.470;6.770;2022-09-29T09:46:28;18.03;;;13.07;;
3293;SDS011;1659;51.470;6.770;2022-09-29T09:49:01;17.83;;;11.90;;
3293;SDS011;1659;51.470;6.770;2022-09-29T09:51:37;17.50;;;13.27;;
3293;SDS011;1659;51.470;6.770;2022-09-29T09:54:13;25.47;;;15.63;;
3293;SDS011;1659;51.470;6.770;2022-09-29T09:56:54;29.00;;;16.87;;
3293;SDS011;1659;51.470;6.770;2022-09-29T09:59:38;24.73;;;15.73;;
3293;SDS011;1659;51.470;6.770;2022-09-29T10:02:18;23.60;;;15.20;;
3293;SDS011;1659;51.470;6.770;2022-09-29T10:04:47;21.97;;;14.10;;
3293;SDS011;1659;51.470;6.770;2022-09-29T10:07:16;20.30;;;11.93;;
3293;SDS011;1659;51.470;6.770;2022-09-29T10:09:45;14.00;;;11.27;;
3293;SDS011;1659;51.470;6.770;2022-09-29T10:12:13;17.77;;;12.63;;
3293;SDS011;1659;51.470;6.770;2022-09-29T10:14:42;14.60;;;11.40;;
3293;SDS011;1659;51.470;6.770;2022-09-29T10:17:15;16.83;;;13.50;;
3293;SDS011;1659;51.470;6.770;2022-09-29T10:19:56;18.10;;;12.60;;
3293;SDS011;1659;51.470;6.770;2022-09-29T10:22:25;11.47;;;9.23;;
3293;SDS011;1659;51.470;6.770;2022-09-29T10:24:52;12.63;;;9.87;;
3293;SDS011;1659;51.470;6.770;2022-09-29T10:27:22;12.97;;;8.17;;
3293;SDS011;1659;51.470;6.770;2022-09-29T10:29:51;13.50;;;8.50;;
3293;SDS011;1659;51.470;6.770;2022-09-29T10:32:24;8.67;;;7.60;;
3293;SDS011;1659;51.470;6.770;2022-09-29T10:35:02;12.77;;;7.37;;
3293;SDS011;1659;51.470;6.770;2022-09-29T10:37:33;12.03;;;7.43;;
3293;SDS011;1659;51.470;6.770;2022-09-29T10:40:03;11.63;;;9.30;;
3293;SDS011;1659;51.470;6.770;2022-09-29T10:42:42;9.37;;;7.60;;
3293;SDS011;1659;51.470;6.770;2022-09-29T10:45:11;10.20;;;7.73;;
3293;SDS011;1659;51.470;6.770;2022-09-29T10:47:41;7.97;;;7.17;;
3293;SDS011;1659;51.470;6.770;2022-09-29T10:50:12;10.60;;;8.37;;
3293;SDS011;1659;51.470;6.770;2022-09-29T10:52:41;8.93;;;7.03;;
3293;SDS011;1659;51.470;6.770;2022-09-29T10:55:14;10.43;;;8.50;;
3293;SDS011;1659;51.470;6.770;2022-09-29T10:57:43;10.90;;;8.37;;
3293;SDS011;1659;51.470;6.770;2022-09-29T11:00:23;12.33;;;7.60;;
3293;SDS011;1659;51.470;6.770;2022-09-29T11:02:53;9.43;;;8.53;;
3293;SDS011;1659;51.470;6.770;2022-09-29T11:05:27;10.27;;;8.00;;
3293;SDS011;1659;51.470;6.770;2022-09-29T11:07:53;8.20;;;7.37;;
3293;SDS011;1659;51.470;6.770;2022-09-29T11:10:27;11.17;;;7.53;;
3293;SDS011;1659;51.470;6.770;2022-09-29T11:12:54;9.80;;;7.40;;
3293;SDS011;1659;51.470;6.770;2022-09-29T11:15:24;8.60;;;7.10;;
3293;SDS011;1659;51.470;6.770;2022-09-29T11:17:54;8.27;;;5.87;;
3293;SDS011;1659;51.470;6.770;2022-09-29T11:20:22;5.53;;;4.27;;
3293;SDS011;1659;51.470;6.770;2022-09-29T11:22:58;6.90;;;5.40;;
3293;SDS011;1659;51.470;6.770;2022-09-29T11:25:45;8.90;;;6.40;;
3293;SDS011;1659;51.470;6.770;2022-09-29T11:28:31;8.13;;;5.30;;
3293;SDS011;1659;51.470;6.770;2022-09-29T11:31:21;5.13;;;4.40;;
3293;SDS011;1659;51.470;6.770;2022-09-29T11:33:58;4.63;;;4.13;;
3293;SDS011;1659;51.470;6.770;2022-09-29T11:36:41;4.37;;;3.77;;
3293;SDS011;1659;51.470;6.770;2022-09-29T11:39:20;5.17;;;4.57;;
3293;SDS011;1659;51.470;6.770;2022-09-29T11:41:57;5.80;;;4.83;;
3293;SDS011;1659;51.470;6.770;2022-09-29T11:44:37;6.10;;;4.87;;
3293;SDS011;1659;51.470;6.770;2022-09-29T11:47:23;6.67;;;4.97;;
3293;SDS011;1659;51.470;6.770;2022-09-29T11:50:11;9.43;;;4.87;;
3293;SDS011;1659;51.470;6.770;2022-09-29T11:52:59;5.27;;;4.53;;
3293;SDS011;1659;51.470;6.770;2022-09-29T11:55:39;6.80;;;5.13;;
3293;SDS011;1659;51.470;6.770;2022-09-29T11:58:20;8.00;;;4.70;;
3293;SDS011;1659;51.470;6.770;2022-09-29T12:01:01;4.60;;;3.90;;
3293;SDS011;1659;51.470;6.770;2022-09-29T12:03:39;5.93;;;3.97;;
3293;SDS011;1659;51.470;6.770;2022-09-29T12:06:19;9.77;;;4.50;;
3293;SDS011;1659;51.470;6.770;2022-09-29T12:09:05;5.40;;;4.50;;
3293;SDS011;1659;51.470;6.770;2022-09-29T12:11:46;4.87;;;4.37;;
3293;SDS011;1659;51.470;6.770;2022-09-29T12:14:23;5.33;;;3.33;;
3293;SDS011;1659;51.470;6.770;2022-09-29T12:16:54;4.67;;;3.13;;
3293;SDS011;1659;51.470;6.770;2022-09-29T12:19:25;3.97;;;3.60;;
3293;SDS011;1659;51.470;6.770;2022-09-29T12:21:56;4.77;;;3.97;;
3293;SDS011;1659;51.470;6.770;2022-09-29T12:24:31;9.73;;;3.77;;
3293;SDS011;1659;51.470;6.770;2022-09-29T12:27:02;3.47;;;3.27;;
3293;SDS011;1659;51.470;6.770;2022-09-29T12:29:33;3.87;;;3.57;;
3293;SDS011;1659;51.470;6.770;2022-09-29T12:32:04;5.97;;;3.90;;
3293;SDS011;1659;51.470;6.770;2022-09-29T12:34:40;4.60;;;4.17;;
3293;SDS011;1659;51.470;6.770;2022-09-29T12:37:12;5.37;;;3.67;;
3293;SDS011;1659;51.470;6.770;2022-09-29T12:39:44;3.80;;;3.33;;
3293;SDS011;1659;51.470;6.770;2022-09-29T12:42:25;4.40;;;4.00;;
3293;SDS011;1659;51.470;6.770;2022-09-29T12:45:05;4.50;;;3.53;;
3293;SDS011;1659;51.470;6.770;2022-09-29T12:47:58;3.80;;;3.50;;
3293;SDS011;1659;51.470;6.770;2022-09-29T12:50:32;3.30;;;3.00;;
3293;SDS011;1659;51.470;6.770;2022-09-29T12:53:08;3.97;;;3.00;;
3293;SDS011;1659;51.470;6.770;2022-09-29T12:55:43;2.80;;;2.30;;
3293;SDS011;1659;51.470;6.770;2022-09-29T12:58:15;3.10;;;2.67;;
3293;SDS011;1659;51.470;6.770;2022-09-29T13:00:47;2.57;;;2.20;;
3293;SDS011;1659;51.470;6.770;2022-09-29T13:06:28;2.70;;;2.50;;
3293;SDS011;1659;51.470;6.770;2022-09-29T13:09:25;4.30;;;2.77;;
3293;SDS011;1659;51.470;6.770;2022-09-29T13:12:17;7.40;;;2.73;;
3293;SDS011;1659;51.470;6.770;2022-09-29T13:15:20;3.83;;;3.43;;
3293;SDS011;1659;51.470;6.770;2022-09-29T13:18:02;3.50;;;3.20;;
3293;SDS011;1659;51.470;6.770;2022-09-29T13:20:52;4.30;;;3.37;;
3293;SDS011;1659;51.470;6.770;2022-09-29T13:23:36;3.63;;;3.27;;
3293;SDS011;1659;51.470;6.770;2022-09-29T13:26:27;3.37;;;2.67;;
3293;SDS011;1659;51.470;6.770;2022-09-29T13:29:04;6.03;;;2.80;;
3293;SDS011;1659;51.470;6.770;2022-09-29T13:31:38;4.50;;;3.27;;
3293;SDS011;1659;51.470;6.770;2022-09-29T13:34:14;3.17;;;2.87;;
3293;SDS011;1659;51.470;6.770;2022-09-29T13:36:47;7.00;;;2.90;;
3293;SDS011;1659;51.470;6.770;2022-09-29T13:39:19;4.33;;;3.13;;
3293;SDS011;1659;51.470;6.770;2022-09-29T13:41:50;2.90;;;2.67;;
3293;SDS011;1659;51.470;6.770;2022-09-29T13:44:23;3.80;;;3.37;;
3293;SDS011;1659;51.470;6.770;2022-09-29T13:46:51;3.43;;;3.13;;
3293;SDS011;1659;51.470;6.770;2022-09-29T13:49:24;5.17;;;3.37;;
3293;SDS011;1659;51.470;6.770;2022-09-29T13:51:55;7.17;;;3.67;;
3293;SDS011;1659;51.470;6.770;2022-09-29T13:54:36;6.10;;;3.87;;
3293;SDS011;1659;51.470;6.770;2022-09-29T13:57:16;5.90;;;3.43;;
3293;SDS011;1659;51.470;6.770;2022-09-29T13:59:59;7.43;;;3.47;;
3293;SDS011;1659;51.470;6.770;2022-09-29T14:02:31;5.50;;;2.90;;
3293;SDS011;1659;51.470;6.770;2022-09-29T14:05:01;2.63;;;2.43;;
3293;SDS011;1659;51.470;6.770;2022-09-29T14:07:39;2.80;;;2.33;;
3293;SDS011;1659;51.470;6.770;2022-09-29T14:10:19;2.90;;;2.60;;
3293;SDS011;1659;51.470;6.770;2022-09-29T14:12:54;3.30;;;2.60;;
3293;SDS011;1659;51.470;6.770;2022-09-29T14:15:25;2.67;;;2.47;;
3293;SDS011;1659;51.470;6.770;2022-09-29T14:17:54;2.27;;;2.07;;
3293;SDS011;1659;51.470;6.770;2022-09-29T14:20:24;2.93;;;2.27;;
3293;SDS011;1659;51.470;6.770;2022-09-29T14:22:55;2.90;;;2.40;;
3293;SDS011;1659;51.470;6.770;2022-09-29T14:25:46;4.63;;;2.97;;
3293;SDS011;1659;51.470;6.770;2022-09-29T14:28:20;2.47;;;2.27;;
3293;SDS011;1659;51.470;6.770;2022-09-29T14:30:55;2.90;;;2.10;;
3293;SDS011;1659;51.470;6.770;2022-09-29T14:33:27;5.60;;;2.60;;
3293;SDS011;1659;51.470;6.770;2022-09-29T14:36:02;2.17;;;1.97;;
3293;SDS011;1659;51.470;6.770;2022-09-29T14:38:32;2.87;;;2.20;;
3293;SDS011;1659;51.470;6.770;2022-09-29T14:41:02;3.13;;;2.83;;
3293;SDS011;1659;51.470;6.770;2022-09-29T14:43:47;2.87;;;2.57;;
3293;SDS011;1659;51.470;6.770;2022-09-29T14:53:03;4.60;;;2.83;;
3293;SDS011;1659;51.470;6.770;2022-09-29T14:55:46;4.50;;;3.63;;
3293;SDS011;1659;51.470;6.770;2022-09-29T14:58:29;3.70;;;3.40;;
3293;SDS011;1659;51.470;6.770;2022-09-29T15:01:09;3.33;;;2.40;;
3293;SDS011;1659;51.470;6.770;2022-09-29T15:03:46;3.80;;;3.00;;
3293;SDS011;1659;51.470;6.770;2022-09-29T15:06:15;4.20;;;3.37;;
3293;SDS011;1659;51.470;6.770;2022-09-29T15:08:51;3.70;;;2.83;;
3293;SDS011;1659;51.470;6.770;2022-09-29T15:11:23;3.40;;;2.90;;
3293;SDS011;1659;51.470;6.770;2022-09-29T15:13:51;6.63;;;2.70;;
3293;SDS011;1659;51.470;6.770;2022-09-29T15:16:29;6.53;;;3.07;;
3293;SDS011;1659;51.470;6.770;2022-09-29T15:19:11;4.80;;;2.70;;
3293;SDS011;1659;51.470;6.770;2022-09-29T15:21:54;3.50;;;2.63;;
3293;SDS011;1659;51.470;6.770;2022-09-29T15:24:36;2.57;;;2.33;;
3293;SDS011;1659;51.470;6.770;2022-09-29T15:27:18;2.63;;;2.30;;
3293;SDS011;1659;51.470;6.770;2022-09-29T15:29:46;3.63;;;2.63;;
3293;SDS011;1659;51.470;6.770;2022-09-29T15:32:18;3.63;;;2.63;;
3293;SDS011;1659;51.470;6.770;2022-09-29T15:34:47;3.10;;;2.90;;